Shin-oh Maru — JG5594 — position and weather

sailwx.info

Track history (hours):
 
Tides and Currents Weather Stations Pressure Air Temp Water Temp Dewpoint Dewpoint Depression Visibility Wind Speed Wind Dir Waves Ship Positions

Shin-oh Maru

Last reported at 2015-Mar-30 23:18 UTC. Time now 2015-Mar-31 00:21 UTC.
Position N 36°05' E 141°06'.

Length 161 m; draft 7 m.

Type: Ship (hazmat cat A). MMSI: 431100859.

Date/timePositionNaut miles runAvg speedWind from/ knotsBaromVisibWave heightAir tempDewpointWater temp
2015-Mar-30 23:18N 36°05' E 141°06'1418.5
2015-Mar-30 22:33N 36°18' E 141°10'1918.6
2015-Mar-30 21:32N 36°37' E 141°15'1918.9
2015-Mar-30 20:32N 36°55' E 141°20'24 0.5
2015-Mar-28 23:18N 36°31' E 141°15'1418.5
2015-Mar-28 22:33N 36°18' E 141°11'4218.6
2015-Mar-28 20:19N 35°38' E 140°58'1419.0
2015-Mar-28 19:34N 35°26' E 140°47'2019.4
2015-Mar-28 18:32N 35°11' E 140°31'2020.3
2015-Mar-28 17:33N 34°59' E 140°13'1918.8
2015-Mar-28 16:33N 34°51' E 139°51'1515.4
2015-Mar-28 15:33N 35°05' E 139°44'1414.2
2015-Mar-28 14:34N 35°19' E 139°43'1515.4
2015-Mar-28 13:33N 35°33' E 139°50'6 5.0
2015-Mar-28 12:27N 35°38' E 139°46'0 0.0
2015-Mar-28 11:30N 35°38' E 139°46'0 0.0
2015-Mar-28 10:30N 35°38' E 139°46'0 0.0
2015-Mar-28 09:30N 35°38' E 139°46'1 0.8
2015-Mar-28 08:33N 35°37' E 139°46'1414.0
2015-Mar-28 07:33N 35°23' E 139°46'1212.5
2015-Mar-28 06:34N 35°11' E 139°47'1915.8
2015-Mar-28 05:23N 34°52' E 139°52'1417.2
2015-Mar-28 04:33N 34°58' E 140°07'3916.5
2015-Mar-28 02:10N 35°23' E 140°45'1117.6
2015-Mar-28 01:33N 35°31' E 140°53'2517.9
2015-Mar-28 00:08N 35°55' E 141°03'1218.5
2015-Mar-27 23:30N 36°07' E 141°06'1818.8
2015-Mar-27 22:33N 36°24' E 141°11'1919.0
2015-Mar-27 21:33N 36°43' E 141°16'60 1.2
2015-Mar-25 21:11N 35°44' E 141°00'1518.5
2015-Mar-25 20:23N 35°31' E 140°52'1619.2
2015-Mar-25 19:33N 35°18' E 140°40'2019.2
2015-Mar-25 18:30N 35°02' E 140°25'1919.8
2015-Mar-25 17:33N 34°54' E 140°04'1717.5
2015-Mar-25 16:33N 34°56' E 139°43'1918.9
2015-Mar-25 15:33N 35°14' E 139°46'1313.3
2015-Mar-25 14:34N 35°28' E 139°48'1010.2
2015-Mar-25 13:33N 35°38' E 139°46'0 0.0
2015-Mar-25 12:25N 35°38' E 139°46'0 0.0
2015-Mar-25 11:31N 35°38' E 139°46'0 0.0
2015-Mar-25 10:31N 35°38' E 139°46'0 0.0
2015-Mar-25 09:31N 35°38' E 139°46'0 0.0
2015-Mar-25 08:33N 35°38' E 139°46'1110.7
2015-Mar-25 07:33N 35°28' E 139°51'1212.4
2015-Mar-25 06:33N 35°16' E 139°46'1615.5
2015-Mar-25 05:33N 35°01' E 139°43'1413.6
2015-Mar-25 04:32N 34°53' E 139°57'1717.6
2015-Mar-25 03:33N 35°00' E 140°16'1716.6
2015-Mar-25 02:31N 35°11' E 140°33'1818.2
2015-Mar-25 01:33N 35°25' E 140°46'  
2015-Mar-21 16:33N 34°55' E 139°43'1918.6
2015-Mar-21 15:33N 35°14' E 139°46'1313.4
2015-Mar-21 14:34N 35°27' E 139°47'10 0.8
2015-Mar-21 02:33N 35°37' E 139°46'7 6.8
2015-Mar-21 01:29N 35°32' E 139°53'0 0.0
2015-Mar-21 00:25N 35°32' E 139°53'  
Track history (hours):
 
Tides and Currents Weather Stations Pressure Air Temp Water Temp Dewpoint Dewpoint Depression Visibility Wind Speed Wind Dir Waves Ship Positions

Shin-oh Maru

Last reported at 2015-Mar-30 23:18 UTC. Time now 2015-Mar-31 00:21 UTC.
Position N 36°05' E 141°06'.

Length 161 m; draft 7 m.

Type: Ship (hazmat cat A). MMSI: 431100859.

Date/timePositionNaut miles runAvg speedWind from/ knotsBaromVisibWave heightAir tempDewpointWater temp
2015-Mar-30 23:18N 36°05' E 141°06'1418.5
2015-Mar-30 22:33N 36°18' E 141°10'1918.6
2015-Mar-30 21:32N 36°37' E 141°15'1918.9
2015-Mar-30 20:32N 36°55' E 141°20'24 0.5
2015-Mar-28 23:18N 36°31' E 141°15'1418.5
2015-Mar-28 22:33N 36°18' E 141°11'4218.6
2015-Mar-28 20:19N 35°38' E 140°58'1419.0
2015-Mar-28 19:34N 35°26' E 140°47'2019.4
2015-Mar-28 18:32N 35°11' E 140°31'2020.3
2015-Mar-28 17:33N 34°59' E 140°13'1918.8
2015-Mar-28 16:33N 34°51' E 139°51'1515.4
2015-Mar-28 15:33N 35°05' E 139°44'1414.2
2015-Mar-28 14:34N 35°19' E 139°43'1515.4
2015-Mar-28 13:33N 35°33' E 139°50'6 5.0
2015-Mar-28 12:27N 35°38' E 139°46'0 0.0
2015-Mar-28 11:30N 35°38' E 139°46'0 0.0
2015-Mar-28 10:30N 35°38' E 139°46'0 0.0
2015-Mar-28 09:30N 35°38' E 139°46'1 0.8
2015-Mar-28 08:33N 35°37' E 139°46'1414.0
2015-Mar-28 07:33N 35°23' E 139°46'1212.5
2015-Mar-28 06:34N 35°11' E 139°47'1915.8
2015-Mar-28 05:23N 34°52' E 139°52'1417.2
2015-Mar-28 04:33N 34°58' E 140°07'3916.5
2015-Mar-28 02:10N 35°23' E 140°45'1117.6
2015-Mar-28 01:33N 35°31' E 140°53'2517.9
2015-Mar-28 00:08N 35°55' E 141°03'1218.5
2015-Mar-27 23:30N 36°07' E 141°06'1818.8
2015-Mar-27 22:33N 36°24' E 141°11'1919.0
2015-Mar-27 21:33N 36°43' E 141°16'60 1.2
2015-Mar-25 21:11N 35°44' E 141°00'1518.5
2015-Mar-25 20:23N 35°31' E 140°52'1619.2
2015-Mar-25 19:33N 35°18' E 140°40'2019.2
2015-Mar-25 18:30N 35°02' E 140°25'1919.8
2015-Mar-25 17:33N 34°54' E 140°04'1717.5
2015-Mar-25 16:33N 34°56' E 139°43'1918.9
2015-Mar-25 15:33N 35°14' E 139°46'1313.3
2015-Mar-25 14:34N 35°28' E 139°48'1010.2
2015-Mar-25 13:33N 35°38' E 139°46'0 0.0
2015-Mar-25 12:25N 35°38' E 139°46'0 0.0
2015-Mar-25 11:31N 35°38' E 139°46'0 0.0
2015-Mar-25 10:31N 35°38' E 139°46'0 0.0
2015-Mar-25 09:31N 35°38' E 139°46'0 0.0
2015-Mar-25 08:33N 35°38' E 139°46'1110.7
2015-Mar-25 07:33N 35°28' E 139°51'1212.4
2015-Mar-25 06:33N 35°16' E 139°46'1615.5
2015-Mar-25 05:33N 35°01' E 139°43'1413.6
2015-Mar-25 04:32N 34°53' E 139°57'1717.6
2015-Mar-25 03:33N 35°00' E 140°16'1716.6
2015-Mar-25 02:31N 35°11' E 140°33'1818.2
2015-Mar-25 01:33N 35°25' E 140°46'  
2015-Mar-21 16:33N 34°55' E 139°43'1918.6
2015-Mar-21 15:33N 35°14' E 139°46'1313.4
2015-Mar-21 14:34N 35°27' E 139°47'10 0.8
2015-Mar-21 02:33N 35°37' E 139°46'7 6.8
2015-Mar-21 01:29N 35°32' E 139°53'0 0.0
2015-Mar-21 00:25N 35°32' E 139°53'  

Dump ship's entire track history